createdAt,value
2023-05-15T00:00:01.207Z,461.00
2023-05-15T00:01:02.228Z,460.00
2023-05-15T00:02:02.296Z,464.00
2023-05-15T00:03:01.429Z,464.00
2023-05-15T00:04:01.439Z,465.00
2023-05-15T00:05:01.515Z,465.00
2023-05-15T00:06:02.554Z,466.00
2023-05-15T00:07:01.615Z,466.00
2023-05-15T00:08:01.700Z,465.00
2023-05-15T00:09:01.730Z,463.00
2023-05-15T00:10:01.811Z,463.00
2023-05-15T00:11:02.374Z,463.00
2023-05-15T00:12:02.911Z,462.00
2023-05-15T00:13:01.988Z,462.00
2023-05-15T00:14:03.055Z,459.00
2023-05-15T00:15:02.101Z,461.00
2023-05-15T00:16:03.225Z,460.00
2023-05-15T00:17:03.204Z,460.00
2023-05-15T00:18:03.392Z,460.00
2023-05-15T00:19:02.328Z,463.00
2023-05-15T00:20:03.391Z,465.00
2023-05-15T00:21:03.432Z,464.00
2023-05-15T00:22:03.500Z,466.00
2023-05-15T00:23:02.563Z,468.00
2023-05-15T00:24:02.617Z,467.00
2023-05-15T00:25:02.676Z,468.00
2023-05-15T00:26:03.756Z,465.00
2023-05-15T00:27:03.849Z,463.00
2023-05-15T00:28:03.879Z,461.00
2023-05-15T00:29:02.943Z,459.00
2023-05-15T00:30:03.987Z,459.00
2023-05-15T00:31:03.096Z,456.00
2023-05-15T00:32:03.102Z,456.00
2023-05-15T00:33:04.223Z,457.00
2023-05-15T00:34:04.236Z,463.00
2023-05-15T00:35:04.333Z,464.00
2023-05-15T00:36:04.340Z,463.00
2023-05-15T00:37:03.419Z,461.00
2023-05-15T00:38:04.465Z,462.00
2023-05-15T00:39:03.536Z,463.00
2023-05-15T00:40:03.619Z,462.00
2023-05-15T00:41:04.668Z,461.00
2023-05-15T00:42:03.776Z,462.00
2023-05-15T00:43:04.820Z,463.00
2023-05-15T00:44:03.843Z,460.00
2023-05-15T00:45:04.904Z,458.00
2023-05-15T00:46:04.983Z,460.00
2023-05-15T00:47:05.094Z,461.00
2023-05-15T00:48:04.195Z,465.00
2023-05-15T00:49:05.170Z,464.00
2023-05-15T00:50:04.209Z,468.00
2023-05-15T00:51:05.252Z,466.00
2023-05-15T00:52:04.321Z,463.00
2023-05-15T00:53:05.401Z,464.00
2023-05-15T00:54:04.506Z,462.00
2023-05-15T00:55:05.496Z,463.00
2023-05-15T00:56:05.587Z,462.00
2023-05-15T00:57:05.628Z,461.00
2023-05-15T00:58:04.713Z,462.00
2023-05-15T00:59:04.787Z,463.00
2023-05-15T01:00:05.822Z,465.00
2023-05-15T01:01:08.280Z,470.00
2023-05-15T01:02:04.895Z,468.00
2023-05-15T01:03:06.120Z,464.00
2023-05-15T01:04:05.861Z,462.00
2023-05-15T01:05:05.861Z,459.00
2023-05-15T01:06:05.865Z,458.00
2023-05-15T01:07:05.843Z,463.00
2023-05-15T01:08:05.851Z,461.00
2023-05-15T01:09:04.827Z,458.00
2023-05-15T01:10:04.810Z,456.00
2023-05-15T01:11:04.817Z,459.00
2023-05-15T01:12:05.838Z,458.00
2023-05-15T01:13:04.807Z,456.00
2023-05-15T01:14:04.789Z,456.00
2023-05-15T01:15:04.876Z,455.00
2023-05-15T01:16:04.777Z,457.00
2023-05-15T01:17:05.774Z,458.00
2023-05-15T01:18:04.906Z,460.00
2023-05-15T01:19:05.058Z,460.00
2023-05-15T01:20:05.065Z,461.00
2023-05-15T01:21:05.014Z,464.00
2023-05-15T01:22:06.070Z,463.00
2023-05-15T01:23:06.164Z,462.00
2023-05-15T01:24:05.188Z,459.00
2023-05-15T01:25:06.263Z,464.00
2023-05-15T01:26:05.318Z,463.00
2023-05-15T01:27:06.382Z,463.00
2023-05-15T01:28:05.462Z,459.00
2023-05-15T01:29:06.524Z,457.00
2023-05-15T01:30:05.593Z,457.00
2023-05-15T01:31:06.664Z,458.00
2023-05-15T01:32:05.750Z,451.00
2023-05-15T01:33:05.820Z,456.00
2023-05-15T01:34:06.825Z,455.00
2023-05-15T01:35:05.892Z,454.00
2023-05-15T01:36:06.963Z,454.00
2023-05-15T01:37:06.020Z,455.00
2023-05-15T01:38:06.107Z,456.00
2023-05-15T01:39:07.125Z,451.00
2023-05-15T01:40:07.211Z,453.00
2023-05-15T01:41:07.298Z,455.00
2023-05-15T01:42:07.330Z,456.00
2023-05-15T01:43:06.387Z,456.00
2023-05-15T01:44:06.442Z,453.00
2023-05-15T01:45:06.527Z,457.00
2023-05-15T01:46:06.579Z,459.00
2023-05-15T01:47:07.748Z,459.00
2023-05-15T01:48:06.716Z,462.00
2023-05-15T01:49:06.768Z,460.00
2023-05-15T01:50:07.864Z,458.00
2023-05-15T01:51:06.901Z,459.00
2023-05-15T01:52:07.958Z,461.00
2023-05-15T01:53:08.034Z,464.00
2023-05-15T01:54:08.075Z,461.00
2023-05-15T01:55:08.149Z,461.00
2023-05-15T01:56:08.208Z,461.00
2023-05-15T01:57:07.287Z,460.00
2023-05-15T01:58:08.291Z,460.00
2023-05-15T01:59:08.392Z,459.00
2023-05-15T02:00:07.406Z,461.00
2023-05-15T02:01:07.478Z,462.00
2023-05-15T02:02:08.641Z,465.00
2023-05-15T02:03:08.769Z,463.00
2023-05-15T02:04:08.651Z,462.00
2023-05-15T02:05:08.719Z,460.00
2023-05-15T02:06:08.758Z,455.00
2023-05-15T02:07:08.836Z,457.00
2023-05-15T02:08:08.892Z,456.00
2023-05-15T02:09:08.905Z,456.00
2023-05-15T02:10:08.947Z,460.00
2023-05-15T02:11:07.982Z,459.00
2023-05-15T02:12:08.027Z,460.00
2023-05-15T02:13:08.070Z,460.00
2023-05-15T02:14:09.160Z,460.00
2023-05-15T02:15:09.145Z,458.00
2023-05-15T02:16:09.219Z,454.00
2023-05-15T02:17:08.233Z,454.00
2023-05-15T02:18:08.294Z,460.00
2023-05-15T02:19:10.291Z,459.00
2023-05-15T02:20:08.395Z,460.00
2023-05-15T02:21:08.475Z,461.00
2023-05-15T02:22:09.502Z,463.00
2023-05-15T02:23:09.632Z,461.00
2023-05-15T02:24:08.623Z,461.00
2023-05-15T02:25:08.658Z,464.00
2023-05-15T02:26:09.723Z,467.00
2023-05-15T02:27:08.775Z,467.00
2023-05-15T02:28:09.900Z,470.00
2023-05-15T02:29:09.942Z,469.00
2023-05-15T02:30:09.930Z,465.00
2023-05-15T02:31:09.958Z,465.00
2023-05-15T02:32:09.083Z,465.00
2023-05-15T02:33:09.039Z,459.00
2023-05-15T02:34:09.030Z,457.00
2023-05-15T02:35:09.078Z,458.00
2023-05-15T02:36:10.131Z,459.00
2023-05-15T02:37:10.124Z,458.00
2023-05-15T02:38:10.161Z,455.00
2023-05-15T02:39:09.212Z,460.00
2023-05-15T02:40:10.261Z,461.00
2023-05-15T02:41:10.306Z,462.00
2023-05-15T02:42:09.351Z,463.00
2023-05-15T02:43:09.418Z,463.00
2023-05-15T02:44:09.453Z,468.00
2023-05-15T02:45:09.522Z,465.00
2023-05-15T02:46:09.615Z,466.00
2023-05-15T02:47:10.653Z,462.00
2023-05-15T02:48:09.704Z,459.00
2023-05-15T02:49:09.743Z,460.00
2023-05-15T02:50:10.831Z,461.00
2023-05-15T02:51:10.876Z,459.00
2023-05-15T02:52:10.898Z,454.00
2023-05-15T02:53:09.923Z,461.00
2023-05-15T02:54:10.975Z,455.00
2023-05-15T02:55:11.012Z,460.00
2023-05-15T02:56:10.126Z,458.00
2023-05-15T02:57:11.144Z,456.00
2023-05-15T02:58:11.161Z,460.00
2023-05-15T02:59:10.218Z,458.00
2023-05-15T03:00:10.279Z,458.00
2023-05-15T03:01:11.300Z,456.00
2023-05-15T03:02:10.350Z,462.00
2023-05-15T03:03:11.378Z,464.00
2023-05-15T03:04:10.482Z,461.00
2023-05-15T03:05:11.425Z,459.00
2023-05-15T03:06:11.485Z,457.00
2023-05-15T03:07:11.529Z,456.00
2023-05-15T03:08:11.527Z,462.00
2023-05-15T03:09:10.567Z,458.00
2023-05-15T03:10:11.585Z,462.00
2023-05-15T03:11:10.627Z,461.00
2023-05-15T03:12:10.653Z,460.00
2023-05-15T03:13:10.683Z,462.00
2023-05-15T03:14:10.745Z,463.00
2023-05-15T03:15:10.759Z,462.00
2023-05-15T03:16:11.795Z,461.00
2023-05-15T03:17:11.924Z,463.00
2023-05-15T03:18:10.995Z,462.00
2023-05-15T03:19:12.057Z,461.00
2023-05-15T03:20:10.973Z,462.00
2023-05-15T03:21:12.007Z,457.00
2023-05-15T03:22:11.017Z,460.00
2023-05-15T03:23:11.083Z,460.00
2023-05-15T03:24:12.825Z,460.00
2023-05-15T03:25:12.149Z,460.00
2023-05-15T03:26:11.164Z,460.00
2023-05-15T03:27:12.216Z,458.00
2023-05-15T03:28:12.252Z,462.00
2023-05-15T03:29:11.320Z,462.00
2023-05-15T03:30:11.346Z,462.00
2023-05-15T03:31:12.446Z,458.00
2023-05-15T03:32:12.560Z,461.00
2023-05-15T03:33:11.517Z,461.00
2023-05-15T03:34:12.564Z,460.00
2023-05-15T03:35:12.634Z,459.00
2023-05-15T03:36:12.701Z,460.00
2023-05-15T03:37:11.758Z,465.00
2023-05-15T03:38:11.819Z,464.00
2023-05-15T03:39:12.936Z,465.00
2023-05-15T03:40:11.871Z,462.00
2023-05-15T03:41:11.910Z,461.00
2023-05-15T03:42:12.938Z,457.00
2023-05-15T03:43:11.969Z,459.00
2023-05-15T03:44:13.015Z,461.00
2023-05-15T03:45:13.056Z,463.00
2023-05-15T03:46:13.176Z,469.00
2023-05-15T03:47:13.162Z,464.00
2023-05-15T03:48:13.213Z,462.00
2023-05-15T03:49:12.241Z,462.00
2023-05-15T03:50:12.301Z,462.00
2023-05-15T03:51:13.339Z,462.00
2023-05-15T03:52:13.350Z,456.00
2023-05-15T03:53:13.379Z,457.00
2023-05-15T03:54:13.433Z,459.00
2023-05-15T03:55:12.507Z,458.00
2023-05-15T03:56:13.543Z,459.00
2023-05-15T03:57:13.594Z,457.00
2023-05-15T03:58:12.610Z,457.00
2023-05-15T03:59:12.648Z,455.00
2023-05-15T04:00:13.707Z,454.00
2023-05-15T04:01:13.726Z,453.00
2023-05-15T04:02:13.798Z,452.00
2023-05-15T04:03:13.089Z,451.00
2023-05-15T04:04:13.873Z,453.00
2023-05-15T04:05:13.915Z,453.00
2023-05-15T04:06:13.959Z,455.00
2023-05-15T04:07:13.980Z,456.00
2023-05-15T04:08:13.013Z,457.00
2023-05-15T04:09:14.058Z,457.00
2023-05-15T04:10:14.086Z,456.00
2023-05-15T04:11:14.117Z,455.00
2023-05-15T04:12:14.133Z,459.00
2023-05-15T04:13:13.190Z,460.00
2023-05-15T04:14:14.227Z,457.00
2023-05-15T04:15:13.249Z,455.00
2023-05-15T04:16:14.309Z,453.00
2023-05-15T04:17:14.315Z,449.00
2023-05-15T04:18:13.340Z,450.00
2023-05-15T04:19:13.394Z,453.00
2023-05-15T04:20:13.392Z,452.00
2023-05-15T04:21:14.404Z,452.00
2023-05-15T04:22:14.413Z,452.00
2023-05-15T04:23:13.456Z,458.00
2023-05-15T04:24:14.489Z,458.00
2023-05-15T04:25:13.476Z,454.00
2023-05-15T04:26:13.482Z,455.00
2023-05-15T04:27:13.513Z,453.00
2023-05-15T04:28:14.469Z,453.00
2023-05-15T04:29:13.524Z,455.00
2023-05-15T04:30:14.506Z,458.00
2023-05-15T04:31:13.508Z,459.00
2023-05-15T04:32:14.581Z,459.00
2023-05-15T04:33:13.592Z,456.00
2023-05-15T04:34:14.572Z,456.00
2023-05-15T04:35:14.602Z,456.00
2023-05-15T04:36:13.606Z,457.00
2023-05-15T04:37:13.615Z,455.00
2023-05-15T04:38:14.629Z,454.00
2023-05-15T04:39:13.668Z,456.00
2023-05-15T04:40:14.704Z,458.00
2023-05-15T04:41:14.730Z,457.00
2023-05-15T04:42:13.755Z,456.00
2023-05-15T04:43:14.786Z,458.00
2023-05-15T04:44:14.792Z,460.00
2023-05-15T04:45:13.812Z,461.00
2023-05-15T04:46:14.916Z,460.00
2023-05-15T04:47:13.876Z,457.00
2023-05-15T04:48:13.897Z,457.00
2023-05-15T04:49:14.939Z,459.00
2023-05-15T04:50:14.953Z,461.00
2023-05-15T04:51:14.975Z,461.00
2023-05-15T04:52:15.012Z,458.00
2023-05-15T04:53:15.037Z,459.00
2023-05-15T04:54:15.071Z,459.00
2023-05-15T04:55:15.104Z,459.00
2023-05-15T04:56:15.109Z,460.00
2023-05-15T04:57:14.136Z,462.00
2023-05-15T04:58:14.200Z,462.00
2023-05-15T04:59:15.211Z,464.00
2023-05-15T05:00:15.204Z,511.00
2023-05-15T05:01:15.261Z,471.00
2023-05-15T05:02:14.299Z,485.00
2023-05-15T05:03:14.512Z,484.00
2023-05-15T05:04:15.460Z,486.00
2023-05-15T05:05:15.394Z,484.00
2023-05-15T05:06:15.401Z,496.00
2023-05-15T05:07:15.382Z,493.00
2023-05-15T05:08:15.370Z,485.00
2023-05-15T05:09:15.423Z,503.00
2023-05-15T05:10:14.446Z,496.00
2023-05-15T05:11:15.541Z,502.00
2023-05-15T05:12:14.615Z,496.00
2023-05-15T05:13:15.572Z,497.00
2023-05-15T05:14:15.637Z,505.00
2023-05-15T05:15:14.668Z,510.00
2023-05-15T05:16:15.705Z,500.00
2023-05-15T05:17:14.666Z,499.00
2023-05-15T05:18:14.670Z,506.00
2023-05-15T05:19:14.726Z,507.00
2023-05-15T05:20:14.703Z,499.00
2023-05-15T05:21:14.675Z,504.00
2023-05-15T05:22:15.669Z,492.00
2023-05-15T05:23:15.674Z,493.00
2023-05-15T05:24:14.680Z,509.00
2023-05-15T05:25:14.676Z,513.00
2023-05-15T05:26:15.683Z,647.00
2023-05-15T05:27:15.709Z,511.00
2023-05-15T05:28:15.752Z,510.00
2023-05-15T05:29:15.749Z,530.00
2023-05-15T05:30:14.760Z,541.00
2023-05-15T05:31:14.808Z,527.00
2023-05-15T05:32:14.777Z,526.00
2023-05-15T05:33:15.802Z,510.00
2023-05-15T05:34:14.799Z,526.00
2023-05-15T05:35:15.835Z,543.00
2023-05-15T05:36:15.855Z,533.00
2023-05-15T05:37:15.864Z,529.00
2023-05-15T05:38:15.911Z,570.00
2023-05-15T05:39:14.941Z,574.00
2023-05-15T05:40:14.997Z,566.00
2023-05-15T05:41:15.053Z,576.00
2023-05-15T05:42:16.028Z,582.00
2023-05-15T05:43:15.059Z,589.00
2023-05-15T05:44:16.052Z,593.00
2023-05-15T05:45:15.061Z,606.00
2023-05-15T05:46:16.029Z,642.00
2023-05-15T05:47:16.222Z,662.00
2023-05-15T05:48:16.052Z,651.00
2023-05-15T05:49:16.095Z,840.00
2023-05-15T05:50:15.119Z,689.00
2023-05-15T05:51:15.146Z,722.00
2023-05-15T05:52:16.245Z,801.00
2023-05-15T05:53:16.233Z,753.00
2023-05-15T05:54:16.243Z,748.00
2023-05-15T05:55:15.311Z,772.00
2023-05-15T05:56:16.383Z,796.00
2023-05-15T05:57:16.421Z,802.00
2023-05-15T05:58:24.912Z,800.00
2023-05-15T05:59:16.481Z,853.00
2023-05-15T06:00:15.478Z,809.00
2023-05-15T06:01:16.461Z,808.00
2023-05-15T06:02:16.454Z,969.00
2023-05-15T06:03:15.611Z,913.00
2023-05-15T06:04:17.590Z,808.00
2023-05-15T06:05:16.438Z,808.00
2023-05-15T06:06:15.406Z,776.00
2023-05-15T06:07:16.431Z,762.00
2023-05-15T06:08:15.396Z,795.00
2023-05-15T06:09:15.401Z,979.00
2023-05-15T06:10:15.398Z,865.00
2023-05-15T06:11:15.402Z,857.00
2023-05-15T06:12:16.363Z,915.00
2023-05-15T06:13:16.366Z,822.00
2023-05-15T06:14:16.376Z,899.00
2023-05-15T06:15:15.357Z,730.00
2023-05-15T06:16:15.352Z,748.00
2023-05-15T06:17:16.421Z,737.00
2023-05-15T06:18:15.325Z,727.00
2023-05-15T06:19:15.466Z,713.00
2023-05-15T06:20:16.305Z,733.00
2023-05-15T06:21:15.304Z,723.00
2023-05-15T06:22:16.314Z,725.00
2023-05-15T06:23:15.305Z,868.00
2023-05-15T06:24:15.746Z,944.00
2023-05-15T06:25:15.299Z,708.00
2023-05-15T06:26:16.290Z,871.00
2023-05-15T06:27:15.293Z,703.00
2023-05-15T06:28:15.252Z,691.00
2023-05-15T06:29:15.271Z,692.00
2023-05-15T06:30:15.256Z,754.00
2023-05-15T06:31:16.299Z,830.00
2023-05-15T06:32:16.244Z,795.00
2023-05-15T06:33:15.287Z,794.00
2023-05-15T06:34:15.237Z,820.00
2023-05-15T06:35:16.242Z,823.00
2023-05-15T06:36:16.245Z,817.00
2023-05-15T06:37:16.222Z,821.00
2023-05-15T06:38:16.223Z,805.00
2023-05-15T06:39:16.200Z,682.00
2023-05-15T06:40:15.207Z,692.00
2023-05-15T06:41:15.232Z,759.00
2023-05-15T06:42:15.170Z,717.00
2023-05-15T06:43:15.152Z,757.00
2023-05-15T06:44:15.161Z,797.00
2023-05-15T06:45:16.161Z,669.00
2023-05-15T06:46:16.175Z,681.00
2023-05-15T06:47:16.195Z,687.00
2023-05-15T06:48:16.161Z,626.00
2023-05-15T06:49:16.144Z,689.00
2023-05-15T06:50:16.236Z,745.00
2023-05-15T06:51:16.192Z,748.00
2023-05-15T06:52:16.112Z,783.00
2023-05-15T06:53:16.119Z,795.00
2023-05-15T06:54:16.259Z,862.00
2023-05-15T06:55:16.093Z,814.00
2023-05-15T06:56:16.089Z,849.00
2023-05-15T06:57:16.073Z,1067.00
2023-05-15T06:58:16.066Z,1006.00
2023-05-15T06:59:16.069Z,912.00
2023-05-15T07:00:16.082Z,890.00
2023-05-15T07:01:15.083Z,962.00
2023-05-15T07:02:15.108Z,1003.00
2023-05-15T07:03:16.030Z,978.00
2023-05-15T07:04:16.148Z,1183.00
2023-05-15T07:05:16.112Z,1076.00
2023-05-15T07:06:16.081Z,1281.00
2023-05-15T07:07:15.116Z,1168.00
2023-05-15T07:08:15.112Z,1125.00
2023-05-15T07:09:16.189Z,1243.00
2023-05-15T07:10:15.134Z,1160.00
2023-05-15T07:11:15.154Z,1334.00
2023-05-15T07:12:16.179Z,1328.00
2023-05-15T07:13:16.169Z,1243.00
2023-05-15T07:14:15.154Z,1323.00
2023-05-15T07:15:16.179Z,1325.00
2023-05-15T07:16:16.162Z,1433.00
2023-05-15T07:17:16.176Z,1367.00
2023-05-15T07:18:15.202Z,1345.00
2023-05-15T07:19:15.231Z,1344.00
2023-05-15T07:20:15.196Z,1350.00
2023-05-15T07:21:15.183Z,1415.00
2023-05-15T07:22:16.211Z,1418.00
2023-05-15T07:23:16.278Z,1398.00
2023-05-15T07:24:16.298Z,1411.00
2023-05-15T07:25:17.164Z,1757.00
2023-05-15T07:26:23.741Z,1828.00
2023-05-15T07:27:16.330Z,1550.00
2023-05-15T07:28:15.332Z,1807.00
2023-05-15T07:29:16.325Z,1579.00
2023-05-15T07:30:16.380Z,1626.00
2023-05-15T07:31:15.342Z,1567.00
2023-05-15T07:32:16.317Z,1573.00
2023-05-15T07:33:16.281Z,1615.00
2023-05-15T07:34:15.285Z,1777.00
2023-05-15T07:35:16.257Z,1701.00
2023-05-15T07:36:15.284Z,1670.00
2023-05-15T07:37:17.136Z,1869.00
2023-05-15T07:38:15.263Z,1774.00
2023-05-15T07:39:16.297Z,1912.00
2023-05-15T07:40:15.220Z,1840.00
2023-05-15T07:41:16.231Z,1916.00
2023-05-15T07:42:15.220Z,1715.00
2023-05-15T07:43:16.224Z,1721.00
2023-05-15T07:44:16.200Z,1698.00
2023-05-15T07:45:15.243Z,1719.00
2023-05-15T07:46:15.218Z,1693.00
2023-05-15T07:47:16.209Z,1842.00
2023-05-15T07:48:15.265Z,1837.00
2023-05-15T07:49:16.310Z,1860.00
2023-05-15T07:50:16.780Z,2088.00
2023-05-15T07:51:16.445Z,1946.00
2023-05-15T07:52:15.515Z,1970.00
2023-05-15T07:53:16.559Z,2195.00
2023-05-15T07:54:16.631Z,1798.00
2023-05-15T07:55:16.845Z,1782.00
2023-05-15T07:56:16.746Z,1775.00
2023-05-15T07:57:16.794Z,1765.00
2023-05-15T07:58:16.853Z,1753.00
2023-05-15T07:59:16.894Z,1737.00
2023-05-15T08:00:16.918Z,1732.00
2023-05-15T08:01:16.950Z,1702.00
2023-05-15T08:02:17.050Z,1746.00
2023-05-15T08:03:16.137Z,1737.00
2023-05-15T08:04:16.072Z,1764.00
2023-05-15T08:05:17.050Z,1760.00
2023-05-15T08:06:17.120Z,1922.00
2023-05-15T08:07:17.171Z,2175.00
2023-05-15T08:08:17.221Z,2075.00
2023-05-15T08:09:17.265Z,2140.00
2023-05-15T08:10:17.340Z,2052.00
2023-05-15T08:11:17.442Z,2197.00
2023-05-15T08:12:16.401Z,2282.00
2023-05-15T08:13:17.478Z,2124.00
2023-05-15T08:14:17.526Z,2172.00
2023-05-15T08:15:17.586Z,2224.00
2023-05-15T08:16:16.672Z,2203.00
2023-05-15T08:17:17.607Z,2226.00
2023-05-15T08:18:16.651Z,2221.00
2023-05-15T08:19:16.734Z,2217.00
2023-05-15T08:20:17.746Z,2217.00
2023-05-15T08:21:17.746Z,2224.00
2023-05-15T08:22:16.746Z,2370.00
2023-05-15T08:23:17.785Z,2343.00
2023-05-15T08:24:17.806Z,2378.00
2023-05-15T08:25:17.855Z,2353.00
2023-05-15T08:26:17.860Z,2342.00
2023-05-15T08:27:17.982Z,2353.00
2023-05-15T08:28:16.923Z,2348.00
2023-05-15T08:29:17.921Z,2428.00
2023-05-15T08:30:16.981Z,2380.00
2023-05-15T08:31:17.021Z,2472.00
2023-05-15T08:32:17.005Z,2508.00
2023-05-15T08:33:18.027Z,2535.00
2023-05-15T08:34:17.030Z,2561.00
2023-05-15T08:35:18.117Z,2561.00
2023-05-15T08:36:17.214Z,2836.00
2023-05-15T08:37:17.164Z,2663.00
2023-05-15T08:38:18.161Z,2539.00
2023-05-15T08:39:18.149Z,2933.00
2023-05-15T08:40:21.337Z,2629.00
2023-05-15T08:41:21.446Z,1892.00
2023-05-15T08:42:18.189Z,1807.00
2023-05-15T08:43:18.305Z,1644.00
2023-05-15T08:44:18.200Z,1844.00
2023-05-15T08:45:18.146Z,1745.00
2023-05-15T08:46:18.178Z,1665.00
2023-05-15T08:47:18.138Z,1581.00
2023-05-15T08:48:17.309Z,1533.00
2023-05-15T08:49:18.217Z,1692.00
2023-05-15T08:50:17.229Z,1507.00
2023-05-15T08:51:19.152Z,1521.00
2023-05-15T08:52:18.112Z,1462.00
2023-05-15T08:53:17.124Z,1313.00
2023-05-15T08:54:18.092Z,1191.00
2023-05-15T08:55:18.095Z,1429.00
2023-05-15T08:56:17.147Z,1301.00
2023-05-15T08:57:18.087Z,1273.00
2023-05-15T08:58:18.087Z,1272.00
2023-05-15T08:59:18.106Z,1345.00
2023-05-15T09:00:18.058Z,1108.00
2023-05-15T09:01:17.096Z,1008.00
2023-05-15T09:02:18.047Z,951.00
2023-05-15T09:03:18.158Z,926.00
2023-05-15T09:04:18.038Z,867.00
2023-05-15T09:05:18.032Z,882.00
2023-05-15T09:06:18.033Z,932.00
2023-05-15T09:07:17.046Z,928.00
2023-05-15T09:08:18.021Z,918.00
2023-05-15T09:09:16.993Z,902.00
2023-05-15T09:10:16.979Z,885.00
2023-05-15T09:11:18.062Z,867.00
2023-05-15T09:12:16.991Z,856.00
2023-05-15T09:13:18.050Z,817.00
2023-05-15T09:14:18.603Z,843.00
2023-05-15T09:15:17.144Z,794.00
2023-05-15T09:16:18.172Z,781.00
2023-05-15T09:17:17.223Z,921.00
2023-05-15T09:18:18.306Z,782.00
2023-05-15T09:19:18.339Z,763.00
2023-05-15T09:20:18.405Z,914.00
2023-05-15T09:21:18.341Z,892.00
2023-05-15T09:22:18.399Z,913.00
2023-05-15T09:23:18.351Z,966.00
2023-05-15T09:24:18.360Z,982.00
2023-05-15T09:25:18.314Z,1418.00
2023-05-15T09:26:18.397Z,933.00
2023-05-15T09:27:17.465Z,915.00
2023-05-15T09:28:18.536Z,1061.00
2023-05-15T09:29:18.855Z,1143.00
2023-05-15T09:30:18.863Z,1132.00
2023-05-15T09:31:17.690Z,1203.00
2023-05-15T09:32:17.772Z,1219.00
2023-05-15T09:33:17.828Z,1288.00
2023-05-15T09:34:17.844Z,1250.00
2023-05-15T09:35:18.880Z,1280.00
2023-05-15T09:36:17.912Z,1362.00
2023-05-15T09:37:18.956Z,1383.00
2023-05-15T09:38:19.010Z,1453.00
2023-05-15T09:39:18.020Z,1560.00
2023-05-15T09:40:19.099Z,1395.00
2023-05-15T09:41:18.104Z,1523.00
2023-05-15T09:42:18.127Z,1512.00
2023-05-15T09:43:19.145Z,1553.00
2023-05-15T09:44:21.464Z,1544.00
2023-05-15T09:45:18.193Z,1602.00
2023-05-15T09:46:19.548Z,1672.00
2023-05-15T09:47:18.332Z,1736.00
2023-05-15T09:48:18.279Z,1710.00
2023-05-15T09:49:18.170Z,1823.00
2023-05-15T09:50:18.151Z,1756.00
2023-05-15T09:51:18.338Z,1733.00
2023-05-15T09:52:19.121Z,1758.00
2023-05-15T09:53:21.423Z,1750.00
2023-05-15T09:54:20.139Z,1781.00
2023-05-15T09:55:19.089Z,1771.00
2023-05-15T09:56:18.090Z,1707.00
2023-05-15T09:57:18.101Z,1708.00
2023-05-15T09:58:18.076Z,1714.00
2023-05-15T09:59:18.092Z,1706.00
2023-05-15T10:00:19.054Z,1666.00
2023-05-15T10:01:18.061Z,1705.00
2023-05-15T10:02:19.105Z,1754.00
2023-05-15T10:03:18.189Z,1746.00
2023-05-15T10:04:19.158Z,1742.00
2023-05-15T10:05:23.538Z,1742.00
2023-05-15T10:06:19.375Z,1715.00
2023-05-15T10:07:19.196Z,1715.00
2023-05-15T10:08:18.184Z,1700.00
2023-05-15T10:09:19.179Z,1664.00
2023-05-15T10:10:18.165Z,1657.00
2023-05-15T10:11:18.322Z,1656.00
2023-05-15T10:12:18.203Z,1654.00
2023-05-15T10:13:19.137Z,1656.00
2023-05-15T10:14:19.150Z,1660.00
2023-05-15T10:15:18.129Z,1664.00
2023-05-15T10:16:18.210Z,1660.00
2023-05-15T10:17:19.132Z,1681.00
2023-05-15T10:18:19.133Z,1699.00
2023-05-15T10:19:18.148Z,1696.00
2023-05-15T10:20:19.091Z,1695.00
2023-05-15T10:21:19.132Z,1687.00
2023-05-15T10:22:19.092Z,1688.00
2023-05-15T10:23:19.082Z,1679.00
2023-05-15T10:24:18.089Z,1683.00
2023-05-15T10:25:19.059Z,1684.00
2023-05-15T10:26:19.059Z,1663.00
2023-05-15T10:27:19.052Z,1649.00
2023-05-15T10:28:19.046Z,1644.00
2023-05-15T10:29:19.055Z,1637.00
2023-05-15T10:30:18.033Z,1626.00
2023-05-15T10:31:19.028Z,1594.00
2023-05-15T10:32:19.030Z,1586.00
2023-05-15T10:33:18.996Z,1567.00
2023-05-15T10:34:19.024Z,1554.00
2023-05-15T10:35:18.050Z,1545.00
2023-05-15T10:36:19.352Z,1540.00
2023-05-15T10:37:18.989Z,1518.00
2023-05-15T10:38:18.972Z,1507.00
2023-05-15T10:39:17.968Z,1510.00
2023-05-15T10:40:18.978Z,1516.00
2023-05-15T10:41:18.317Z,1514.00
2023-05-15T10:42:17.948Z,1497.00
2023-05-15T10:43:19.074Z,1491.00
2023-05-15T10:44:17.924Z,1468.00
2023-05-15T10:45:18.921Z,1461.00
2023-05-15T10:46:19.384Z,1478.00
2023-05-15T10:47:18.960Z,1479.00
2023-05-15T10:48:18.900Z,1483.00
2023-05-15T10:49:18.889Z,1404.00
2023-05-15T10:50:18.924Z,1438.00
2023-05-15T10:51:18.906Z,1444.00
2023-05-15T10:52:18.887Z,1439.00
2023-05-15T10:53:18.889Z,1452.00
2023-05-15T10:54:17.893Z,1453.00
2023-05-15T10:55:18.883Z,1508.00
2023-05-15T10:56:18.928Z,1481.00
2023-05-15T10:57:18.904Z,1461.00
2023-05-15T10:58:18.894Z,1435.00
2023-05-15T10:59:17.875Z,1455.00
2023-05-15T11:00:18.895Z,1414.00
2023-05-15T11:01:18.940Z,1513.00
2023-05-15T11:02:17.922Z,1504.00
2023-05-15T11:03:19.039Z,1515.00
2023-05-15T11:04:17.967Z,1517.00
2023-05-15T11:05:18.918Z,1518.00
2023-05-15T11:06:17.945Z,1491.00
2023-05-15T11:07:17.940Z,1499.00
2023-05-15T11:08:17.950Z,1527.00
2023-05-15T11:09:18.943Z,1533.00
2023-05-15T11:10:17.962Z,1509.00
2023-05-15T11:11:18.987Z,1483.00
2023-05-15T11:12:17.994Z,1470.00
2023-05-15T11:13:18.176Z,1471.00
2023-05-15T11:14:19.012Z,1462.00
2023-05-15T11:15:18.017Z,1460.00
2023-05-15T11:16:18.040Z,1483.00
2023-05-15T11:17:19.062Z,1499.00
2023-05-15T11:18:19.161Z,1518.00
2023-05-15T11:19:19.111Z,1508.00
2023-05-15T11:20:18.094Z,1499.00
2023-05-15T11:21:19.086Z,1499.00
2023-05-15T11:22:19.126Z,1506.00
2023-05-15T11:23:18.137Z,1516.00
2023-05-15T11:24:18.157Z,1515.00
2023-05-15T11:25:19.180Z,1467.00
2023-05-15T11:26:19.181Z,1446.00
2023-05-15T11:27:19.226Z,1438.00
2023-05-15T11:28:19.239Z,1432.00
2023-05-15T11:29:19.239Z,1431.00
2023-05-15T11:30:18.492Z,1423.00
2023-05-15T11:31:19.335Z,1422.00
2023-05-15T11:32:19.337Z,1423.00
2023-05-15T11:33:19.387Z,1431.00
2023-05-15T11:34:19.373Z,1473.00
2023-05-15T11:35:18.436Z,1487.00
2023-05-15T11:36:18.444Z,1475.00
2023-05-15T11:37:19.477Z,1576.00
2023-05-15T11:38:19.535Z,1563.00
2023-05-15T11:39:18.540Z,1473.00
2023-05-15T11:40:19.601Z,1372.00
2023-05-15T11:41:19.614Z,1394.00
2023-05-15T11:42:18.618Z,1393.00
2023-05-15T11:43:19.646Z,1363.00
2023-05-15T11:44:19.680Z,1340.00
2023-05-15T11:45:18.710Z,1307.00
2023-05-15T11:46:19.767Z,1296.00
2023-05-15T11:47:19.796Z,1221.00
2023-05-15T11:48:18.866Z,1248.00
2023-05-15T11:49:19.878Z,1232.00
2023-05-15T11:50:19.902Z,1266.00
2023-05-15T11:51:19.970Z,1248.00
2023-05-15T11:52:19.014Z,1284.00
2023-05-15T11:53:20.085Z,1256.00
2023-05-15T11:54:19.181Z,1152.00
2023-05-15T11:55:20.173Z,1154.00
2023-05-15T11:56:20.210Z,1098.00
2023-05-15T11:57:20.263Z,1077.00
2023-05-15T11:58:20.294Z,1071.00
2023-05-15T11:59:20.326Z,1059.00
2023-05-15T12:00:20.374Z,1046.00
2023-05-15T12:01:19.419Z,1044.00
2023-05-15T12:02:20.555Z,1045.00
2023-05-15T12:03:20.638Z,1046.00
2023-05-15T12:04:20.786Z,1044.00
2023-05-15T12:05:19.589Z,1036.00
2023-05-15T12:06:19.629Z,1022.00
2023-05-15T12:07:20.708Z,1006.00
2023-05-15T12:08:19.752Z,997.00
2023-05-15T12:09:19.762Z,994.00
2023-05-15T12:10:19.866Z,980.00
2023-05-15T12:11:20.864Z,955.00
2023-05-15T12:12:19.904Z,946.00
2023-05-15T12:13:20.954Z,937.00
2023-05-15T12:14:20.995Z,926.00
2023-05-15T12:15:21.029Z,920.00
2023-05-15T12:16:21.158Z,916.00
2023-05-15T12:17:20.133Z,915.00
2023-05-15T12:18:20.168Z,906.00
2023-05-15T12:19:20.280Z,906.00